sensor_id;sensor_type;location;lat;lon;timestamp;temperature;humidity
41928;DHT22;27616;51.420;6.788;2024-03-22T00:01:57;10.80;99.90
41928;DHT22;27616;51.420;6.788;2024-03-22T00:04:22;10.80;99.90
41928;DHT22;27616;51.420;6.788;2024-03-22T00:06:49;10.90;99.90
41928;DHT22;27616;51.420;6.788;2024-03-22T00:09:15;10.90;99.90
41928;DHT22;27616;51.420;6.788;2024-03-22T00:11:42;11.00;99.90
41928;DHT22;27616;51.420;6.788;2024-03-22T00:14:09;11.00;99.90
41928;DHT22;27616;51.420;6.788;2024-03-22T00:16:34;11.00;99.90
41928;DHT22;27616;51.420;6.788;2024-03-22T00:19:00;11.00;99.90
41928;DHT22;27616;51.420;6.788;2024-03-22T00:21:26;11.00;99.90
41928;DHT22;27616;51.420;6.788;2024-03-22T00:23:51;11.10;99.90
41928;DHT22;27616;51.420;6.788;2024-03-22T00:26:17;11.20;99.90
41928;DHT22;27616;51.420;6.788;2024-03-22T00:28:43;11.20;99.90
41928;DHT22;27616;51.420;6.788;2024-03-22T00:31:08;11.10;99.90
41928;DHT22;27616;51.420;6.788;2024-03-22T00:33:34;11.20;99.90
41928;DHT22;27616;51.420;6.788;2024-03-22T00:36:00;11.10;99.90
41928;DHT22;27616;51.420;6.788;2024-03-22T00:38:26;11.20;99.90
41928;DHT22;27616;51.420;6.788;2024-03-22T00:40:52;11.30;99.90
41928;DHT22;27616;51.420;6.788;2024-03-22T00:43:19;11.30;99.90
41928;DHT22;27616;51.420;6.788;2024-03-22T00:45:44;11.30;99.90
41928;DHT22;27616;51.420;6.788;2024-03-22T00:48:10;11.30;99.90
41928;DHT22;27616;51.420;6.788;2024-03-22T00:50:35;11.20;99.90
41928;DHT22;27616;51.420;6.788;2024-03-22T00:53:01;11.20;99.90
41928;DHT22;27616;51.420;6.788;2024-03-22T00:55:28;11.20;99.90
41928;DHT22;27616;51.420;6.788;2024-03-22T00:57:54;11.20;99.90
41928;DHT22;27616;51.420;6.788;2024-03-22T01:00:20;11.10;99.90
41928;DHT22;27616;51.420;6.788;2024-03-22T01:02:45;11.10;99.90
41928;DHT22;27616;51.420;6.788;2024-03-22T01:05:11;11.10;99.90
41928;DHT22;27616;51.420;6.788;2024-03-22T01:07:37;11.10;99.90
41928;DHT22;27616;51.420;6.788;2024-03-22T01:10:04;11.20;99.90
41928;DHT22;27616;51.420;6.788;2024-03-22T01:12:30;11.20;99.90
41928;DHT22;27616;51.420;6.788;2024-03-22T01:14:56;11.20;99.90
41928;DHT22;27616;51.420;6.788;2024-03-22T01:17:22;11.20;99.90
41928;DHT22;27616;51.420;6.788;2024-03-22T01:19:48;11.30;99.90
41928;DHT22;27616;51.420;6.788;2024-03-22T01:22:14;11.30;99.90
41928;DHT22;27616;51.420;6.788;2024-03-22T01:24:39;11.30;99.90
41928;DHT22;27616;51.420;6.788;2024-03-22T01:27:05;11.30;99.90
41928;DHT22;27616;51.420;6.788;2024-03-22T01:29:31;11.30;99.90
41928;DHT22;27616;51.420;6.788;2024-03-22T01:31:58;11.30;99.90
41928;DHT22;27616;51.420;6.788;2024-03-22T01:34:24;11.30;99.90
41928;DHT22;27616;51.420;6.788;2024-03-22T01:36:51;11.30;99.90
41928;DHT22;27616;51.420;6.788;2024-03-22T01:39:16;11.30;99.90
41928;DHT22;27616;51.420;6.788;2024-03-22T01:41:43;11.30;99.90
41928;DHT22;27616;51.420;6.788;2024-03-22T01:44:09;11.30;99.90
41928;DHT22;27616;51.420;6.788;2024-03-22T01:46:35;11.30;99.90
41928;DHT22;27616;51.420;6.788;2024-03-22T01:49:01;11.40;99.90
41928;DHT22;27616;51.420;6.788;2024-03-22T01:51:26;11.30;99.90
41928;DHT22;27616;51.420;6.788;2024-03-22T01:53:53;11.20;99.90
41928;DHT22;27616;51.420;6.788;2024-03-22T01:56:20;11.20;99.90
41928;DHT22;27616;51.420;6.788;2024-03-22T01:58:46;11.30;99.90
41928;DHT22;27616;51.420;6.788;2024-03-22T02:01:12;11.30;99.90
41928;DHT22;27616;51.420;6.788;2024-03-22T02:03:37;11.30;99.90
41928;DHT22;27616;51.420;6.788;2024-03-22T02:06:03;11.30;99.90
41928;DHT22;27616;51.420;6.788;2024-03-22T02:08:29;11.30;99.90
41928;DHT22;27616;51.420;6.788;2024-03-22T02:10:55;11.30;99.90
41928;DHT22;27616;51.420;6.788;2024-03-22T02:13:20;11.20;99.90
41928;DHT22;27616;51.420;6.788;2024-03-22T02:15:46;11.20;99.90
41928;DHT22;27616;51.420;6.788;2024-03-22T02:18:11;11.20;99.90
41928;DHT22;27616;51.420;6.788;2024-03-22T02:20:37;11.20;99.90
41928;DHT22;27616;51.420;6.788;2024-03-22T02:23:03;11.30;99.90
41928;DHT22;27616;51.420;6.788;2024-03-22T02:25:28;11.30;99.90
41928;DHT22;27616;51.420;6.788;2024-03-22T02:27:54;11.30;99.90
41928;DHT22;27616;51.420;6.788;2024-03-22T02:30:19;11.30;99.90
41928;DHT22;27616;51.420;6.788;2024-03-22T02:32:45;11.30;99.90
41928;DHT22;27616;51.420;6.788;2024-03-22T02:35:11;11.30;99.90
41928;DHT22;27616;51.420;6.788;2024-03-22T02:37:36;11.30;99.90
41928;DHT22;27616;51.420;6.788;2024-03-22T02:40:02;11.30;99.90
41928;DHT22;27616;51.420;6.788;2024-03-22T02:42:28;11.30;99.90
41928;DHT22;27616;51.420;6.788;2024-03-22T02:44:53;11.30;99.90
41928;DHT22;27616;51.420;6.788;2024-03-22T02:47:19;11.20;99.90
41928;DHT22;27616;51.420;6.788;2024-03-22T02:49:44;11.20;99.90
41928;DHT22;27616;51.420;6.788;2024-03-22T02:52:10;11.20;99.90
41928;DHT22;27616;51.420;6.788;2024-03-22T02:54:36;11.20;99.90
41928;DHT22;27616;51.420;6.788;2024-03-22T02:57:01;11.20;99.90
41928;DHT22;27616;51.420;6.788;2024-03-22T02:59:28;11.20;99.90
41928;DHT22;27616;51.420;6.788;2024-03-22T03:01:54;11.30;99.90
41928;DHT22;27616;51.420;6.788;2024-03-22T03:04:19;11.30;99.90
41928;DHT22;27616;51.420;6.788;2024-03-22T03:06:45;11.30;99.90
41928;DHT22;27616;51.420;6.788;2024-03-22T03:09:11;11.30;99.90
41928;DHT22;27616;51.420;6.788;2024-03-22T03:11:39;11.30;99.90
41928;DHT22;27616;51.420;6.788;2024-03-22T03:14:05;11.30;99.90
41928;DHT22;27616;51.420;6.788;2024-03-22T03:16:31;11.20;99.90
41928;DHT22;27616;51.420;6.788;2024-03-22T03:18:56;11.20;99.90
41928;DHT22;27616;51.420;6.788;2024-03-22T03:21:22;11.20;99.90
41928;DHT22;27616;51.420;6.788;2024-03-22T03:23:47;11.20;99.90
41928;DHT22;27616;51.420;6.788;2024-03-22T03:26:13;11.30;99.90
41928;DHT22;27616;51.420;6.788;2024-03-22T03:28:39;11.20;99.90
41928;DHT22;27616;51.420;6.788;2024-03-22T03:31:04;11.30;99.90
41928;DHT22;27616;51.420;6.788;2024-03-22T03:33:30;11.20;99.90
41928;DHT22;27616;51.420;6.788;2024-03-22T03:35:56;11.10;99.90
41928;DHT22;27616;51.420;6.788;2024-03-22T03:38:22;11.10;99.90
41928;DHT22;27616;51.420;6.788;2024-03-22T03:40:48;11.00;99.90
41928;DHT22;27616;51.420;6.788;2024-03-22T03:43:13;10.90;99.90
41928;DHT22;27616;51.420;6.788;2024-03-22T03:45:39;11.00;99.90
41928;DHT22;27616;51.420;6.788;2024-03-22T03:48:05;10.90;99.90
41928;DHT22;27616;51.420;6.788;2024-03-22T03:50:30;10.90;99.90
41928;DHT22;27616;51.420;6.788;2024-03-22T03:52:56;11.00;99.90
41928;DHT22;27616;51.420;6.788;2024-03-22T03:55:22;11.00;99.90
41928;DHT22;27616;51.420;6.788;2024-03-22T03:57:50;11.00;99.90
41928;DHT22;27616;51.420;6.788;2024-03-22T04:00:16;11.10;99.90
41928;DHT22;27616;51.420;6.788;2024-03-22T04:02:42;11.10;99.90
41928;DHT22;27616;51.420;6.788;2024-03-22T04:05:07;11.10;99.90
41928;DHT22;27616;51.420;6.788;2024-03-22T04:07:33;11.10;99.90
41928;DHT22;27616;51.420;6.788;2024-03-22T04:09:59;11.00;99.90
41928;DHT22;27616;51.420;6.788;2024-03-22T04:12:26;11.10;99.90
41928;DHT22;27616;51.420;6.788;2024-03-22T04:14:52;11.10;99.90
41928;DHT22;27616;51.420;6.788;2024-03-22T04:17:18;11.10;99.90
41928;DHT22;27616;51.420;6.788;2024-03-22T04:19:43;11.00;99.90
41928;DHT22;27616;51.420;6.788;2024-03-22T04:22:09;11.00;99.90
41928;DHT22;27616;51.420;6.788;2024-03-22T04:24:34;11.00;99.90
41928;DHT22;27616;51.420;6.788;2024-03-22T04:27:00;11.00;99.90
41928;DHT22;27616;51.420;6.788;2024-03-22T04:29:26;11.00;99.90
41928;DHT22;27616;51.420;6.788;2024-03-22T04:31:51;11.00;99.90
41928;DHT22;27616;51.420;6.788;2024-03-22T04:34:17;11.10;99.90
41928;DHT22;27616;51.420;6.788;2024-03-22T04:36:42;11.10;99.90
41928;DHT22;27616;51.420;6.788;2024-03-22T04:39:09;11.00;99.90
41928;DHT22;27616;51.420;6.788;2024-03-22T04:41:35;11.00;99.90
41928;DHT22;27616;51.420;6.788;2024-03-22T04:44:01;11.00;99.90
41928;DHT22;27616;51.420;6.788;2024-03-22T04:46:27;10.90;99.90
41928;DHT22;27616;51.420;6.788;2024-03-22T04:48:52;11.00;99.90
41928;DHT22;27616;51.420;6.788;2024-03-22T04:51:18;11.00;99.90
41928;DHT22;27616;51.420;6.788;2024-03-22T04:53:43;11.10;99.90
41928;DHT22;27616;51.420;6.788;2024-03-22T04:56:10;11.00;99.90
41928;DHT22;27616;51.420;6.788;2024-03-22T04:58:35;11.00;99.90
41928;DHT22;27616;51.420;6.788;2024-03-22T05:01:01;11.00;99.90
41928;DHT22;27616;51.420;6.788;2024-03-22T05:03:26;11.00;99.90
41928;DHT22;27616;51.420;6.788;2024-03-22T05:05:52;11.00;99.90
41928;DHT22;27616;51.420;6.788;2024-03-22T05:08:18;11.00;99.90
41928;DHT22;27616;51.420;6.788;2024-03-22T05:10:43;10.90;99.90
41928;DHT22;27616;51.420;6.788;2024-03-22T05:13:09;11.00;99.90
41928;DHT22;27616;51.420;6.788;2024-03-22T05:15:35;11.10;99.90
41928;DHT22;27616;51.420;6.788;2024-03-22T05:18:00;11.10;99.90
41928;DHT22;27616;51.420;6.788;2024-03-22T05:20:26;11.00;99.90
41928;DHT22;27616;51.420;6.788;2024-03-22T05:22:52;10.90;99.90
41928;DHT22;27616;51.420;6.788;2024-03-22T05:25:18;10.90;99.90
41928;DHT22;27616;51.420;6.788;2024-03-22T05:27:44;11.00;99.90
41928;DHT22;27616;51.420;6.788;2024-03-22T05:30:11;11.00;99.90
41928;DHT22;27616;51.420;6.788;2024-03-22T05:32:37;11.00;99.90
41928;DHT22;27616;51.420;6.788;2024-03-22T05:35:03;11.00;99.90
41928;DHT22;27616;51.420;6.788;2024-03-22T05:37:28;10.90;99.90
41928;DHT22;27616;51.420;6.788;2024-03-22T05:39:54;10.90;99.90
41928;DHT22;27616;51.420;6.788;2024-03-22T05:42:20;10.90;99.90
41928;DHT22;27616;51.420;6.788;2024-03-22T05:44:46;11.00;99.90
41928;DHT22;27616;51.420;6.788;2024-03-22T05:47:11;11.00;99.90
41928;DHT22;27616;51.420;6.788;2024-03-22T05:49:37;11.00;99.90
41928;DHT22;27616;51.420;6.788;2024-03-22T05:52:03;11.00;99.90
41928;DHT22;27616;51.420;6.788;2024-03-22T05:54:28;11.10;99.90
41928;DHT22;27616;51.420;6.788;2024-03-22T05:56:54;11.10;99.90
41928;DHT22;27616;51.420;6.788;2024-03-22T05:59:20;11.10;99.90
41928;DHT22;27616;51.420;6.788;2024-03-22T06:01:45;11.30;99.90
41928;DHT22;27616;51.420;6.788;2024-03-22T06:04:11;11.30;99.90
41928;DHT22;27616;51.420;6.788;2024-03-22T06:06:37;11.30;99.90
41928;DHT22;27616;51.420;6.788;2024-03-22T06:09:03;11.40;99.90
41928;DHT22;27616;51.420;6.788;2024-03-22T06:11:32;11.40;99.90
41928;DHT22;27616;51.420;6.788;2024-03-22T06:13:58;11.40;99.90
41928;DHT22;27616;51.420;6.788;2024-03-22T06:16:23;11.50;99.90
41928;DHT22;27616;51.420;6.788;2024-03-22T06:18:49;11.60;99.90
41928;DHT22;27616;51.420;6.788;2024-03-22T06:21:15;11.60;99.90
41928;DHT22;27616;51.420;6.788;2024-03-22T06:23:40;11.60;99.90
41928;DHT22;27616;51.420;6.788;2024-03-22T06:26:07;11.70;99.90
41928;DHT22;27616;51.420;6.788;2024-03-22T06:28:32;11.80;99.90
41928;DHT22;27616;51.420;6.788;2024-03-22T06:30:58;11.70;99.90
41928;DHT22;27616;51.420;6.788;2024-03-22T06:33:24;11.70;99.90
41928;DHT22;27616;51.420;6.788;2024-03-22T06:35:49;11.80;99.90
41928;DHT22;27616;51.420;6.788;2024-03-22T06:38:15;11.80;99.90
41928;DHT22;27616;51.420;6.788;2024-03-22T06:40:40;11.80;99.90
41928;DHT22;27616;51.420;6.788;2024-03-22T06:43:06;12.00;99.90
41928;DHT22;27616;51.420;6.788;2024-03-22T06:45:32;12.10;99.90
41928;DHT22;27616;51.420;6.788;2024-03-22T06:47:57;12.20;99.90
41928;DHT22;27616;51.420;6.788;2024-03-22T06:50:23;12.20;99.90
41928;DHT22;27616;51.420;6.788;2024-03-22T06:52:51;12.40;99.90
41928;DHT22;27616;51.420;6.788;2024-03-22T06:55:21;12.50;99.90
41928;DHT22;27616;51.420;6.788;2024-03-22T06:57:48;12.60;99.90
41928;DHT22;27616;51.420;6.788;2024-03-22T07:00:15;12.70;99.90
41928;DHT22;27616;51.420;6.788;2024-03-22T07:02:41;12.80;99.90
41928;DHT22;27616;51.420;6.788;2024-03-22T07:05:08;12.90;99.90
41928;DHT22;27616;51.420;6.788;2024-03-22T07:07:37;13.10;99.90
41928;DHT22;27616;51.420;6.788;2024-03-22T07:10:04;13.20;99.90
41928;DHT22;27616;51.420;6.788;2024-03-22T07:12:33;13.40;99.90
41928;DHT22;27616;51.420;6.788;2024-03-22T07:15:00;13.50;99.90
41928;DHT22;27616;51.420;6.788;2024-03-22T07:17:26;13.60;99.90
41928;DHT22;27616;51.420;6.788;2024-03-22T07:19:51;13.70;99.90
41928;DHT22;27616;51.420;6.788;2024-03-22T07:22:18;13.70;99.90
41928;DHT22;27616;51.420;6.788;2024-03-22T07:24:43;13.80;99.90
41928;DHT22;27616;51.420;6.788;2024-03-22T07:27:10;13.80;99.90
41928;DHT22;27616;51.420;6.788;2024-03-22T07:29:36;13.90;99.90
41928;DHT22;27616;51.420;6.788;2024-03-22T07:32:01;13.90;99.90
41928;DHT22;27616;51.420;6.788;2024-03-22T07:34:28;14.00;99.90
41928;DHT22;27616;51.420;6.788;2024-03-22T07:36:54;14.00;99.90
41928;DHT22;27616;51.420;6.788;2024-03-22T07:39:20;14.00;99.90
41928;DHT22;27616;51.420;6.788;2024-03-22T07:41:45;14.00;99.90
41928;DHT22;27616;51.420;6.788;2024-03-22T07:44:11;14.00;99.90
41928;DHT22;27616;51.420;6.788;2024-03-22T07:46:36;14.00;99.90
41928;DHT22;27616;51.420;6.788;2024-03-22T07:49:02;14.00;99.90
41928;DHT22;27616;51.420;6.788;2024-03-22T07:51:30;14.00;99.90
41928;DHT22;27616;51.420;6.788;2024-03-22T07:53:55;14.10;99.90
41928;DHT22;27616;51.420;6.788;2024-03-22T07:56:21;14.10;99.90
41928;DHT22;27616;51.420;6.788;2024-03-22T07:58:47;14.10;99.90
41928;DHT22;27616;51.420;6.788;2024-03-22T08:01:13;14.10;99.90
41928;DHT22;27616;51.420;6.788;2024-03-22T08:03:38;14.10;99.90
41928;DHT22;27616;51.420;6.788;2024-03-22T08:06:04;14.20;99.90
41928;DHT22;27616;51.420;6.788;2024-03-22T08:08:30;14.20;99.90
41928;DHT22;27616;51.420;6.788;2024-03-22T08:10:55;14.30;99.90
41928;DHT22;27616;51.420;6.788;2024-03-22T08:13:21;14.50;99.90
41928;DHT22;27616;51.420;6.788;2024-03-22T08:15:46;14.70;99.90
41928;DHT22;27616;51.420;6.788;2024-03-22T08:18:12;14.80;99.90
41928;DHT22;27616;51.420;6.788;2024-03-22T08:20:38;14.90;99.90
41928;DHT22;27616;51.420;6.788;2024-03-22T08:23:07;14.90;99.90
41928;DHT22;27616;51.420;6.788;2024-03-22T08:25:33;14.70;99.90
41928;DHT22;27616;51.420;6.788;2024-03-22T08:27:59;14.60;99.90
41928;DHT22;27616;51.420;6.788;2024-03-22T08:30:24;14.60;99.90
41928;DHT22;27616;51.420;6.788;2024-03-22T08:32:51;14.60;99.90
41928;DHT22;27616;51.420;6.788;2024-03-22T08:35:17;14.50;99.90
41928;DHT22;27616;51.420;6.788;2024-03-22T08:37:42;14.50;99.90
41928;DHT22;27616;51.420;6.788;2024-03-22T08:40:08;14.60;99.90
41928;DHT22;27616;51.420;6.788;2024-03-22T08:42:35;14.70;99.90
41928;DHT22;27616;51.420;6.788;2024-03-22T08:45:01;15.00;99.90
41928;DHT22;27616;51.420;6.788;2024-03-22T08:47:29;15.20;99.90
41928;DHT22;27616;51.420;6.788;2024-03-22T08:49:55;15.30;99.90
41928;DHT22;27616;51.420;6.788;2024-03-22T08:52:23;15.30;99.90
41928;DHT22;27616;51.420;6.788;2024-03-22T08:54:50;15.40;99.90
41928;DHT22;27616;51.420;6.788;2024-03-22T08:57:16;15.30;99.90
41928;DHT22;27616;51.420;6.788;2024-03-22T08:59:42;15.20;99.90
41928;DHT22;27616;51.420;6.788;2024-03-22T09:02:07;15.20;99.90
41928;DHT22;27616;51.420;6.788;2024-03-22T09:04:33;15.10;99.90
41928;DHT22;27616;51.420;6.788;2024-03-22T09:06:58;15.10;99.90
41928;DHT22;27616;51.420;6.788;2024-03-22T09:09:24;15.10;99.90
41928;DHT22;27616;51.420;6.788;2024-03-22T09:11:52;15.10;99.90
41928;DHT22;27616;51.420;6.788;2024-03-22T09:14:18;15.20;99.90
41928;DHT22;27616;51.420;6.788;2024-03-22T09:16:43;15.30;99.90
41928;DHT22;27616;51.420;6.788;2024-03-22T09:19:09;15.50;99.90
41928;DHT22;27616;51.420;6.788;2024-03-22T09:21:36;15.90;99.90
41928;DHT22;27616;51.420;6.788;2024-03-22T09:24:02;16.20;99.90
41928;DHT22;27616;51.420;6.788;2024-03-22T09:26:32;16.50;99.90
41928;DHT22;27616;51.420;6.788;2024-03-22T09:28:57;17.00;99.90
41928;DHT22;27616;51.420;6.788;2024-03-22T09:31:23;17.30;99.90
41928;DHT22;27616;51.420;6.788;2024-03-22T09:33:49;17.50;99.90
41928;DHT22;27616;51.420;6.788;2024-03-22T09:36:14;17.40;99.90
41928;DHT22;27616;51.420;6.788;2024-03-22T09:38:40;17.30;99.90
41928;DHT22;27616;51.420;6.788;2024-03-22T09:41:06;17.00;99.90
41928;DHT22;27616;51.420;6.788;2024-03-22T09:43:33;16.70;99.90
41928;DHT22;27616;51.420;6.788;2024-03-22T09:46:00;16.50;99.90
41928;DHT22;27616;51.420;6.788;2024-03-22T09:48:28;16.30;99.90
41928;DHT22;27616;51.420;6.788;2024-03-22T09:50:54;16.40;99.90
41928;DHT22;27616;51.420;6.788;2024-03-22T09:53:21;16.30;99.90
41928;DHT22;27616;51.420;6.788;2024-03-22T09:55:51;16.40;99.90
41928;DHT22;27616;51.420;6.788;2024-03-22T09:58:17;16.30;99.90
41928;DHT22;27616;51.420;6.788;2024-03-22T10:00:44;16.30;99.90
41928;DHT22;27616;51.420;6.788;2024-03-22T10:03:10;16.30;99.90
41928;DHT22;27616;51.420;6.788;2024-03-22T10:05:36;16.20;99.90
41928;DHT22;27616;51.420;6.788;2024-03-22T10:08:05;16.10;99.90
41928;DHT22;27616;51.420;6.788;2024-03-22T10:10:33;16.20;99.90
41928;DHT22;27616;51.420;6.788;2024-03-22T10:13:03;16.10;99.90
41928;DHT22;27616;51.420;6.788;2024-03-22T10:15:32;16.30;99.90
41928;DHT22;27616;51.420;6.788;2024-03-22T10:17:57;16.40;99.90
41928;DHT22;27616;51.420;6.788;2024-03-22T10:20:23;16.30;99.90
41928;DHT22;27616;51.420;6.788;2024-03-22T10:22:55;16.30;99.90
41928;DHT22;27616;51.420;6.788;2024-03-22T10:25:22;16.10;99.90
41928;DHT22;27616;51.420;6.788;2024-03-22T10:27:48;16.10;99.90
41928;DHT22;27616;51.420;6.788;2024-03-22T10:30:16;16.10;99.90
41928;DHT22;27616;51.420;6.788;2024-03-22T10:32:46;16.00;99.90
41928;DHT22;27616;51.420;6.788;2024-03-22T10:35:14;16.10;99.90
41928;DHT22;27616;51.420;6.788;2024-03-22T10:37:40;16.00;99.90
41928;DHT22;27616;51.420;6.788;2024-03-22T10:40:07;16.00;99.90
41928;DHT22;27616;51.420;6.788;2024-03-22T10:42:40;16.20;99.90
41928;DHT22;27616;51.420;6.788;2024-03-22T10:45:07;16.30;99.90
41928;DHT22;27616;51.420;6.788;2024-03-22T10:47:35;16.20;99.90
41928;DHT22;27616;51.420;6.788;2024-03-22T10:50:11;16.20;99.90
41928;DHT22;27616;51.420;6.788;2024-03-22T10:52:45;16.30;99.90
41928;DHT22;27616;51.420;6.788;2024-03-22T10:55:22;16.50;99.90
41928;DHT22;27616;51.420;6.788;2024-03-22T10:57:49;16.60;99.90
41928;DHT22;27616;51.420;6.788;2024-03-22T11:00:15;16.80;99.90
41928;DHT22;27616;51.420;6.788;2024-03-22T11:02:45;16.80;99.90
41928;DHT22;27616;51.420;6.788;2024-03-22T11:05:17;17.00;99.90
41928;DHT22;27616;51.420;6.788;2024-03-22T11:07:46;17.30;99.90
41928;DHT22;27616;51.420;6.788;2024-03-22T11:10:12;17.60;99.90
41928;DHT22;27616;51.420;6.788;2024-03-22T11:12:39;17.90;99.90
41928;DHT22;27616;51.420;6.788;2024-03-22T11:15:05;17.80;99.90
41928;DHT22;27616;51.420;6.788;2024-03-22T11:17:31;17.70;99.90
41928;DHT22;27616;51.420;6.788;2024-03-22T11:19:57;17.40;99.90
41928;DHT22;27616;51.420;6.788;2024-03-22T11:22:25;17.40;99.90
41928;DHT22;27616;51.420;6.788;2024-03-22T11:24:52;17.00;99.90
41928;DHT22;27616;51.420;6.788;2024-03-22T11:27:18;16.80;99.90
41928;DHT22;27616;51.420;6.788;2024-03-22T11:29:44;16.40;99.90
41928;DHT22;27616;51.420;6.788;2024-03-22T11:32:13;16.20;99.90
41928;DHT22;27616;51.420;6.788;2024-03-22T11:34:39;16.10;99.90
41928;DHT22;27616;51.420;6.788;2024-03-22T11:37:07;16.00;99.90
41928;DHT22;27616;51.420;6.788;2024-03-22T11:39:36;15.90;99.90
41928;DHT22;27616;51.420;6.788;2024-03-22T11:42:04;15.70;99.90
41928;DHT22;27616;51.420;6.788;2024-03-22T11:44:31;15.50;99.90
41928;DHT22;27616;51.420;6.788;2024-03-22T11:46:57;15.50;99.90
41928;DHT22;27616;51.420;6.788;2024-03-22T11:49:24;15.30;99.90
41928;DHT22;27616;51.420;6.788;2024-03-22T11:51:52;15.20;99.90
41928;DHT22;27616;51.420;6.788;2024-03-22T11:54:21;15.00;99.90
41928;DHT22;27616;51.420;6.788;2024-03-22T11:56:47;14.80;99.90
41928;DHT22;27616;51.420;6.788;2024-03-22T11:59:13;14.70;99.90
41928;DHT22;27616;51.420;6.788;2024-03-22T12:01:38;14.60;99.90
41928;DHT22;27616;51.420;6.788;2024-03-22T12:04:05;14.50;99.90
41928;DHT22;27616;51.420;6.788;2024-03-22T12:06:34;14.50;99.90
41928;DHT22;27616;51.420;6.788;2024-03-22T12:09:00;14.40;99.90
41928;DHT22;27616;51.420;6.788;2024-03-22T12:11:26;14.30;99.90
41928;DHT22;27616;51.420;6.788;2024-03-22T12:13:51;14.20;99.90
41928;DHT22;27616;51.420;6.788;2024-03-22T12:16:17;14.20;99.90
41928;DHT22;27616;51.420;6.788;2024-03-22T12:18:43;14.10;99.90
41928;DHT22;27616;51.420;6.788;2024-03-22T12:21:09;14.10;99.90
41928;DHT22;27616;51.420;6.788;2024-03-22T12:23:34;14.00;99.90
41928;DHT22;27616;51.420;6.788;2024-03-22T12:26:00;13.80;99.90
41928;DHT22;27616;51.420;6.788;2024-03-22T12:28:27;13.70;99.90
41928;DHT22;27616;51.420;6.788;2024-03-22T12:30:55;13.70;99.90
41928;DHT22;27616;51.420;6.788;2024-03-22T12:33:21;13.50;99.90
41928;DHT22;27616;51.420;6.788;2024-03-22T12:35:46;13.40;99.90
41928;DHT22;27616;51.420;6.788;2024-03-22T12:38:13;13.30;99.90
41928;DHT22;27616;51.420;6.788;2024-03-22T12:40:40;13.20;99.90
41928;DHT22;27616;51.420;6.788;2024-03-22T12:43:06;13.20;99.90
41928;DHT22;27616;51.420;6.788;2024-03-22T12:45:32;13.20;99.90
41928;DHT22;27616;51.420;6.788;2024-03-22T12:48:00;13.20;99.90
41928;DHT22;27616;51.420;6.788;2024-03-22T12:50:26;13.20;99.90
41928;DHT22;27616;51.420;6.788;2024-03-22T12:52:52;13.10;99.90
41928;DHT22;27616;51.420;6.788;2024-03-22T12:55:18;13.10;99.90
41928;DHT22;27616;51.420;6.788;2024-03-22T12:57:44;13.00;99.90
41928;DHT22;27616;51.420;6.788;2024-03-22T13:00:10;13.10;99.90
41928;DHT22;27616;51.420;6.788;2024-03-22T13:02:42;13.10;99.90
41928;DHT22;27616;51.420;6.788;2024-03-22T13:05:08;13.00;99.90
41928;DHT22;27616;51.420;6.788;2024-03-22T13:07:34;13.00;99.90
41928;DHT22;27616;51.420;6.788;2024-03-22T13:09:59;13.00;99.90
41928;DHT22;27616;51.420;6.788;2024-03-22T13:12:28;13.00;99.90
41928;DHT22;27616;51.420;6.788;2024-03-22T13:14:56;13.00;99.90
41928;DHT22;27616;51.420;6.788;2024-03-22T13:17:22;13.00;99.90
41928;DHT22;27616;51.420;6.788;2024-03-22T13:19:49;13.00;99.90
41928;DHT22;27616;51.420;6.788;2024-03-22T13:22:15;12.90;99.90
41928;DHT22;27616;51.420;6.788;2024-03-22T13:24:47;12.80;99.90
41928;DHT22;27616;51.420;6.788;2024-03-22T13:27:13;12.80;99.90
41928;DHT22;27616;51.420;6.788;2024-03-22T13:29:39;12.80;99.90
41928;DHT22;27616;51.420;6.788;2024-03-22T13:32:05;12.80;99.90
41928;DHT22;27616;51.420;6.788;2024-03-22T13:34:34;12.90;99.90
41928;DHT22;27616;51.420;6.788;2024-03-22T13:37:00;12.90;99.90
41928;DHT22;27616;51.420;6.788;2024-03-22T13:39:25;12.80;99.90
41928;DHT22;27616;51.420;6.788;2024-03-22T13:41:51;12.80;99.90
41928;DHT22;27616;51.420;6.788;2024-03-22T13:44:16;12.80;99.90
41928;DHT22;27616;51.420;6.788;2024-03-22T13:46:42;12.80;99.90
41928;DHT22;27616;51.420;6.788;2024-03-22T13:49:15;12.80;99.90
41928;DHT22;27616;51.420;6.788;2024-03-22T13:51:44;12.80;99.90
41928;DHT22;27616;51.420;6.788;2024-03-22T13:54:11;12.80;99.90
41928;DHT22;27616;51.420;6.788;2024-03-22T13:56:37;12.80;99.90
41928;DHT22;27616;51.420;6.788;2024-03-22T13:59:04;12.90;99.90
41928;DHT22;27616;51.420;6.788;2024-03-22T14:01:34;12.90;99.90
41928;DHT22;27616;51.420;6.788;2024-03-22T14:04:00;12.80;99.90
41928;DHT22;27616;51.420;6.788;2024-03-22T14:06:25;12.80;99.90
41928;DHT22;27616;51.420;6.788;2024-03-22T14:08:51;12.80;99.90
41928;DHT22;27616;51.420;6.788;2024-03-22T14:11:19;12.70;99.90
41928;DHT22;27616;51.420;6.788;2024-03-22T14:13:45;12.60;99.90
41928;DHT22;27616;51.420;6.788;2024-03-22T14:16:11;12.60;99.90
41928;DHT22;27616;51.420;6.788;2024-03-22T14:18:37;12.60;99.90
41928;DHT22;27616;51.420;6.788;2024-03-22T14:21:03;12.60;99.90
41928;DHT22;27616;51.420;6.788;2024-03-22T14:23:28;12.50;99.90
41928;DHT22;27616;51.420;6.788;2024-03-22T14:25:57;12.50;99.90
41928;DHT22;27616;51.420;6.788;2024-03-22T14:28:23;12.50;99.90
41928;DHT22;27616;51.420;6.788;2024-03-22T14:30:48;12.40;99.90
41928;DHT22;27616;51.420;6.788;2024-03-22T14:33:14;12.40;99.90
41928;DHT22;27616;51.420;6.788;2024-03-22T14:35:40;12.30;99.90
41928;DHT22;27616;51.420;6.788;2024-03-22T14:38:05;12.30;99.90
41928;DHT22;27616;51.420;6.788;2024-03-22T14:40:31;12.30;99.90
41928;DHT22;27616;51.420;6.788;2024-03-22T14:43:02;12.20;99.90
41928;DHT22;27616;51.420;6.788;2024-03-22T14:45:28;12.30;99.90
41928;DHT22;27616;51.420;6.788;2024-03-22T14:47:53;12.30;99.90
41928;DHT22;27616;51.420;6.788;2024-03-22T14:50:19;12.30;99.90
41928;DHT22;27616;51.420;6.788;2024-03-22T14:52:48;12.30;99.90
41928;DHT22;27616;51.420;6.788;2024-03-22T14:55:13;12.20;99.90
41928;DHT22;27616;51.420;6.788;2024-03-22T14:57:39;12.10;99.90
41928;DHT22;27616;51.420;6.788;2024-03-22T15:00:05;12.10;99.90
41928;DHT22;27616;51.420;6.788;2024-03-22T15:02:35;12.00;99.90
41928;DHT22;27616;51.420;6.788;2024-03-22T15:05:00;11.90;99.90
41928;DHT22;27616;51.420;6.788;2024-03-22T15:07:26;11.90;99.90
41928;DHT22;27616;51.420;6.788;2024-03-22T15:09:52;11.90;99.90
41928;DHT22;27616;51.420;6.788;2024-03-22T15:12:17;12.00;99.90
41928;DHT22;27616;51.420;6.788;2024-03-22T15:14:43;11.90;99.90
41928;DHT22;27616;51.420;6.788;2024-03-22T15:17:08;11.90;99.90
41928;DHT22;27616;51.420;6.788;2024-03-22T15:19:35;11.80;99.90
41928;DHT22;27616;51.420;6.788;2024-03-22T15:22:00;11.90;99.90
41928;DHT22;27616;51.420;6.788;2024-03-22T15:24:26;12.00;99.90